sensor_id;sensor_type;location;lat;lon;timestamp;P1;durP1;ratioP1;P2;durP2;ratioP2
41927;SDS011;27616;51.420;6.788;2023-12-07T00:00:36;22.97;;;8.77;;
41927;SDS011;27616;51.420;6.788;2023-12-07T00:03:01;22.17;;;8.30;;
41927;SDS011;27616;51.420;6.788;2023-12-07T00:05:27;25.53;;;8.50;;
41927;SDS011;27616;51.420;6.788;2023-12-07T00:07:52;23.67;;;9.13;;
41927;SDS011;27616;51.420;6.788;2023-12-07T00:10:18;20.40;;;8.77;;
41927;SDS011;27616;51.420;6.788;2023-12-07T00:12:44;22.73;;;9.60;;
41927;SDS011;27616;51.420;6.788;2023-12-07T00:15:09;22.80;;;9.37;;
41927;SDS011;27616;51.420;6.788;2023-12-07T00:17:35;27.53;;;9.13;;
41927;SDS011;27616;51.420;6.788;2023-12-07T00:20:00;20.67;;;8.80;;
41927;SDS011;27616;51.420;6.788;2023-12-07T00:22:26;25.80;;;8.90;;
41927;SDS011;27616;51.420;6.788;2023-12-07T00:24:53;21.87;;;8.77;;
41927;SDS011;27616;51.420;6.788;2023-12-07T00:27:19;29.50;;;9.07;;
41927;SDS011;27616;51.420;6.788;2023-12-07T00:29:44;25.30;;;8.77;;
41927;SDS011;27616;51.420;6.788;2023-12-07T00:32:10;20.33;;;8.57;;
41927;SDS011;27616;51.420;6.788;2023-12-07T00:34:36;27.97;;;9.63;;
41927;SDS011;27616;51.420;6.788;2023-12-07T00:37:01;24.50;;;9.77;;
41927;SDS011;27616;51.420;6.788;2023-12-07T00:39:28;22.53;;;8.90;;
41927;SDS011;27616;51.420;6.788;2023-12-07T00:41:54;21.87;;;9.67;;
41927;SDS011;27616;51.420;6.788;2023-12-07T00:44:19;25.23;;;9.40;;
41927;SDS011;27616;51.420;6.788;2023-12-07T00:46:45;24.40;;;9.30;;
41927;SDS011;27616;51.420;6.788;2023-12-07T00:49:10;20.73;;;8.80;;
41927;SDS011;27616;51.420;6.788;2023-12-07T00:51:37;27.27;;;10.30;;
41927;SDS011;27616;51.420;6.788;2023-12-07T00:54:03;22.57;;;9.07;;
41927;SDS011;27616;51.420;6.788;2023-12-07T00:56:28;23.67;;;10.50;;
41927;SDS011;27616;51.420;6.788;2023-12-07T00:58:54;30.17;;;9.27;;
41927;SDS011;27616;51.420;6.788;2023-12-07T01:01:19;27.20;;;10.80;;
41927;SDS011;27616;51.420;6.788;2023-12-07T01:03:45;42.47;;;11.00;;
41927;SDS011;27616;51.420;6.788;2023-12-07T01:06:11;30.43;;;10.27;;
41927;SDS011;27616;51.420;6.788;2023-12-07T01:08:36;28.60;;;9.73;;
41927;SDS011;27616;51.420;6.788;2023-12-07T01:11:03;28.97;;;11.37;;
41927;SDS011;27616;51.420;6.788;2023-12-07T01:13:29;33.40;;;9.43;;
41927;SDS011;27616;51.420;6.788;2023-12-07T01:15:55;30.67;;;10.90;;
41927;SDS011;27616;51.420;6.788;2023-12-07T01:18:21;33.07;;;11.30;;
41927;SDS011;27616;51.420;6.788;2023-12-07T01:20:47;34.17;;;11.63;;
41927;SDS011;27616;51.420;6.788;2023-12-07T01:23:13;26.43;;;11.33;;
41927;SDS011;27616;51.420;6.788;2023-12-07T01:25:39;30.03;;;10.67;;
41927;SDS011;27616;51.420;6.788;2023-12-07T01:28:05;32.10;;;11.30;;
41927;SDS011;27616;51.420;6.788;2023-12-07T01:30:30;29.67;;;11.40;;
41927;SDS011;27616;51.420;6.788;2023-12-07T01:32:56;24.23;;;10.50;;
41927;SDS011;27616;51.420;6.788;2023-12-07T01:35:22;26.80;;;10.43;;
41927;SDS011;27616;51.420;6.788;2023-12-07T01:37:48;28.43;;;10.50;;
41927;SDS011;27616;51.420;6.788;2023-12-07T01:40:13;35.27;;;12.50;;
41927;SDS011;27616;51.420;6.788;2023-12-07T01:42:40;30.07;;;11.07;;
41927;SDS011;27616;51.420;6.788;2023-12-07T01:45:14;28.43;;;10.93;;
41927;SDS011;27616;51.420;6.788;2023-12-07T01:47:39;32.03;;;12.30;;
41927;SDS011;27616;51.420;6.788;2023-12-07T01:50:06;31.90;;;11.97;;
41927;SDS011;27616;51.420;6.788;2023-12-07T01:52:35;35.83;;;12.33;;
41927;SDS011;27616;51.420;6.788;2023-12-07T01:55:03;28.60;;;11.55;;
41927;SDS011;27616;51.420;6.788;2023-12-07T01:57:29;27.43;;;11.53;;
41927;SDS011;27616;51.420;6.788;2023-12-07T01:59:55;29.40;;;10.90;;
41927;SDS011;27616;51.420;6.788;2023-12-07T02:02:21;32.30;;;12.07;;
41927;SDS011;27616;51.420;6.788;2023-12-07T02:04:46;29.93;;;10.93;;
41927;SDS011;27616;51.420;6.788;2023-12-07T02:07:12;32.73;;;12.27;;
41927;SDS011;27616;51.420;6.788;2023-12-07T02:09:38;29.93;;;11.50;;
41927;SDS011;27616;51.420;6.788;2023-12-07T02:12:04;30.83;;;12.33;;
41927;SDS011;27616;51.420;6.788;2023-12-07T02:14:29;30.43;;;11.67;;
41927;SDS011;27616;51.420;6.788;2023-12-07T02:16:57;36.93;;;11.97;;
41927;SDS011;27616;51.420;6.788;2023-12-07T02:25:21;21.83;;;9.80;;
41927;SDS011;27616;51.420;6.788;2023-12-07T02:27:51;42.03;;;11.40;;
41927;SDS011;27616;51.420;6.788;2023-12-07T02:30:16;23.90;;;10.87;;
41927;SDS011;27616;51.420;6.788;2023-12-07T02:32:43;28.87;;;11.07;;
41927;SDS011;27616;51.420;6.788;2023-12-07T02:35:10;22.37;;;10.23;;
41927;SDS011;27616;51.420;6.788;2023-12-07T02:37:50;33.27;;;11.60;;
41927;SDS011;27616;51.420;6.788;2023-12-07T02:40:21;27.20;;;10.95;;
41927;SDS011;27616;51.420;6.788;2023-12-07T02:42:48;33.63;;;12.47;;
41927;SDS011;27616;51.420;6.788;2023-12-07T02:45:15;29.77;;;12.07;;
41927;SDS011;27616;51.420;6.788;2023-12-07T02:47:41;28.33;;;11.83;;
41927;SDS011;27616;51.420;6.788;2023-12-07T02:50:08;30.93;;;12.03;;
41927;SDS011;27616;51.420;6.788;2023-12-07T02:52:34;28.00;;;12.27;;
41927;SDS011;27616;51.420;6.788;2023-12-07T02:55:00;28.10;;;11.03;;
41927;SDS011;27616;51.420;6.788;2023-12-07T02:57:27;31.53;;;11.77;;
41927;SDS011;27616;51.420;6.788;2023-12-07T02:59:53;35.07;;;10.93;;
41927;SDS011;27616;51.420;6.788;2023-12-07T03:02:18;25.27;;;10.47;;
41927;SDS011;27616;51.420;6.788;2023-12-07T03:04:44;31.53;;;11.97;;
41927;SDS011;27616;51.420;6.788;2023-12-07T03:07:10;26.23;;;10.33;;
41927;SDS011;27616;51.420;6.788;2023-12-07T03:09:35;28.90;;;11.27;;
41927;SDS011;27616;51.420;6.788;2023-12-07T03:12:01;25.20;;;10.73;;
41927;SDS011;27616;51.420;6.788;2023-12-07T03:14:26;25.97;;;9.83;;
41927;SDS011;27616;51.420;6.788;2023-12-07T03:16:52;25.90;;;11.30;;
41927;SDS011;27616;51.420;6.788;2023-12-07T03:19:17;33.47;;;12.57;;
41927;SDS011;27616;51.420;6.788;2023-12-07T03:21:43;31.67;;;11.40;;
41927;SDS011;27616;51.420;6.788;2023-12-07T03:24:09;27.33;;;11.10;;
41927;SDS011;27616;51.420;6.788;2023-12-07T03:26:35;26.93;;;10.80;;
41927;SDS011;27616;51.420;6.788;2023-12-07T03:29:02;31.60;;;11.87;;
41927;SDS011;27616;51.420;6.788;2023-12-07T03:31:27;31.73;;;11.13;;
41927;SDS011;27616;51.420;6.788;2023-12-07T03:33:54;33.27;;;12.77;;
41927;SDS011;27616;51.420;6.788;2023-12-07T03:36:20;38.77;;;12.57;;
41927;SDS011;27616;51.420;6.788;2023-12-07T03:38:47;41.67;;;12.83;;
41927;SDS011;27616;51.420;6.788;2023-12-07T03:41:13;33.73;;;14.07;;
41927;SDS011;27616;51.420;6.788;2023-12-07T03:43:38;34.60;;;12.83;;
41927;SDS011;27616;51.420;6.788;2023-12-07T03:46:04;36.93;;;13.73;;
41927;SDS011;27616;51.420;6.788;2023-12-07T03:48:31;34.13;;;13.53;;
41927;SDS011;27616;51.420;6.788;2023-12-07T03:50:57;36.63;;;12.50;;
41927;SDS011;27616;51.420;6.788;2023-12-07T03:53:23;39.37;;;13.93;;
41927;SDS011;27616;51.420;6.788;2023-12-07T03:55:49;36.07;;;13.53;;
41927;SDS011;27616;51.420;6.788;2023-12-07T03:58:14;35.37;;;12.93;;
41927;SDS011;27616;51.420;6.788;2023-12-07T04:00:40;35.97;;;14.33;;
41927;SDS011;27616;51.420;6.788;2023-12-07T04:03:06;33.87;;;12.67;;
41927;SDS011;27616;51.420;6.788;2023-12-07T04:05:32;34.83;;;13.20;;
41927;SDS011;27616;51.420;6.788;2023-12-07T04:07:58;36.73;;;13.07;;
41927;SDS011;27616;51.420;6.788;2023-12-07T04:10:24;46.73;;;14.17;;
41927;SDS011;27616;51.420;6.788;2023-12-07T04:12:50;38.80;;;13.17;;
41927;SDS011;27616;51.420;6.788;2023-12-07T04:15:17;39.67;;;14.70;;
41927;SDS011;27616;51.420;6.788;2023-12-07T04:17:46;38.13;;;13.02;;
41927;SDS011;27616;51.420;6.788;2023-12-07T04:20:12;30.80;;;12.17;;
41927;SDS011;27616;51.420;6.788;2023-12-07T04:22:38;37.77;;;13.93;;
41927;SDS011;27616;51.420;6.788;2023-12-07T04:25:04;32.97;;;12.53;;
41927;SDS011;27616;51.420;6.788;2023-12-07T04:27:31;37.57;;;14.30;;
41927;SDS011;27616;51.420;6.788;2023-12-07T04:29:57;37.13;;;13.43;;
41927;SDS011;27616;51.420;6.788;2023-12-07T04:32:23;37.90;;;13.47;;
41927;SDS011;27616;51.420;6.788;2023-12-07T04:34:48;37.50;;;12.87;;
41927;SDS011;27616;51.420;6.788;2023-12-07T04:37:14;35.17;;;13.03;;
41927;SDS011;27616;51.420;6.788;2023-12-07T04:39:40;36.27;;;13.27;;
41927;SDS011;27616;51.420;6.788;2023-12-07T04:42:05;33.17;;;12.70;;
41927;SDS011;27616;51.420;6.788;2023-12-07T04:44:31;36.50;;;12.80;;
41927;SDS011;27616;51.420;6.788;2023-12-07T04:46:57;45.80;;;15.27;;
41927;SDS011;27616;51.420;6.788;2023-12-07T04:49:22;33.17;;;13.40;;
41927;SDS011;27616;51.420;6.788;2023-12-07T04:51:48;37.30;;;12.73;;
41927;SDS011;27616;51.420;6.788;2023-12-07T04:54:14;39.77;;;12.43;;
41927;SDS011;27616;51.420;6.788;2023-12-07T04:56:42;35.33;;;12.60;;
41927;SDS011;27616;51.420;6.788;2023-12-07T04:59:11;32.20;;;13.45;;
41927;SDS011;27616;51.420;6.788;2023-12-07T05:01:37;32.88;;;12.18;;
41927;SDS011;27616;51.420;6.788;2023-12-07T05:04:03;37.30;;;13.03;;
41927;SDS011;27616;51.420;6.788;2023-12-07T05:06:30;39.57;;;15.33;;
41927;SDS011;27616;51.420;6.788;2023-12-07T05:08:56;36.10;;;13.70;;
41927;SDS011;27616;51.420;6.788;2023-12-07T05:11:22;35.33;;;12.50;;
41927;SDS011;27616;51.420;6.788;2023-12-07T05:13:47;35.03;;;12.30;;
41927;SDS011;27616;51.420;6.788;2023-12-07T05:16:13;34.37;;;13.03;;
41927;SDS011;27616;51.420;6.788;2023-12-07T05:18:39;40.90;;;15.30;;
41927;SDS011;27616;51.420;6.788;2023-12-07T05:21:05;36.07;;;12.37;;
41927;SDS011;27616;51.420;6.788;2023-12-07T05:23:31;36.77;;;13.77;;
41927;SDS011;27616;51.420;6.788;2023-12-07T05:25:57;37.20;;;12.23;;
41927;SDS011;27616;51.420;6.788;2023-12-07T05:28:22;41.60;;;14.03;;
41927;SDS011;27616;51.420;6.788;2023-12-07T05:30:48;40.57;;;12.60;;
41927;SDS011;27616;51.420;6.788;2023-12-07T05:33:14;35.87;;;13.80;;
41927;SDS011;27616;51.420;6.788;2023-12-07T05:35:40;40.53;;;13.90;;
41927;SDS011;27616;51.420;6.788;2023-12-07T05:38:05;35.40;;;13.07;;
41927;SDS011;27616;51.420;6.788;2023-12-07T05:40:31;33.93;;;12.43;;
41927;SDS011;27616;51.420;6.788;2023-12-07T05:42:57;37.90;;;13.30;;
41927;SDS011;27616;51.420;6.788;2023-12-07T05:45:22;39.17;;;13.43;;
41927;SDS011;27616;51.420;6.788;2023-12-07T05:47:48;34.60;;;12.43;;
41927;SDS011;27616;51.420;6.788;2023-12-07T05:50:13;31.80;;;12.60;;
41927;SDS011;27616;51.420;6.788;2023-12-07T05:52:39;30.17;;;11.73;;
41927;SDS011;27616;51.420;6.788;2023-12-07T05:55:05;31.20;;;12.00;;
41927;SDS011;27616;51.420;6.788;2023-12-07T05:57:31;35.67;;;12.27;;
41927;SDS011;27616;51.420;6.788;2023-12-07T05:59:57;32.93;;;12.10;;
41927;SDS011;27616;51.420;6.788;2023-12-07T06:02:22;36.83;;;13.87;;
41927;SDS011;27616;51.420;6.788;2023-12-07T06:04:48;37.10;;;12.67;;
41927;SDS011;27616;51.420;6.788;2023-12-07T06:07:13;33.47;;;12.83;;
41927;SDS011;27616;51.420;6.788;2023-12-07T06:09:40;32.20;;;12.13;;
41927;SDS011;27616;51.420;6.788;2023-12-07T06:12:06;29.70;;;12.10;;
41927;SDS011;27616;51.420;6.788;2023-12-07T06:14:32;32.07;;;11.97;;
41927;SDS011;27616;51.420;6.788;2023-12-07T06:16:57;31.00;;;12.73;;
41927;SDS011;27616;51.420;6.788;2023-12-07T06:19:24;34.57;;;11.77;;
41927;SDS011;27616;51.420;6.788;2023-12-07T06:21:50;33.83;;;12.23;;
41927;SDS011;27616;51.420;6.788;2023-12-07T06:24:16;29.67;;;12.33;;
41927;SDS011;27616;51.420;6.788;2023-12-07T06:26:41;31.97;;;12.23;;
41927;SDS011;27616;51.420;6.788;2023-12-07T06:29:07;32.37;;;13.30;;
41927;SDS011;27616;51.420;6.788;2023-12-07T06:31:33;32.77;;;12.10;;
41927;SDS011;27616;51.420;6.788;2023-12-07T06:33:59;31.50;;;12.83;;
41927;SDS011;27616;51.420;6.788;2023-12-07T06:36:25;31.00;;;12.60;;
41927;SDS011;27616;51.420;6.788;2023-12-07T06:38:52;32.57;;;12.57;;
41927;SDS011;27616;51.420;6.788;2023-12-07T06:41:20;32.60;;;13.30;;
41927;SDS011;27616;51.420;6.788;2023-12-07T06:43:45;28.40;;;11.77;;
41927;SDS011;27616;51.420;6.788;2023-12-07T06:46:11;31.00;;;12.47;;
41927;SDS011;27616;51.420;6.788;2023-12-07T06:48:38;35.00;;;12.87;;
41927;SDS011;27616;51.420;6.788;2023-12-07T06:51:03;30.77;;;12.43;;
41927;SDS011;27616;51.420;6.788;2023-12-07T06:53:29;29.57;;;13.03;;
41927;SDS011;27616;51.420;6.788;2023-12-07T06:55:56;29.53;;;11.93;;
41927;SDS011;27616;51.420;6.788;2023-12-07T06:58:22;33.90;;;12.00;;
41927;SDS011;27616;51.420;6.788;2023-12-07T07:00:48;26.43;;;12.17;;
41927;SDS011;27616;51.420;6.788;2023-12-07T07:03:14;25.90;;;11.43;;
41927;SDS011;27616;51.420;6.788;2023-12-07T07:05:40;28.67;;;12.40;;
41927;SDS011;27616;51.420;6.788;2023-12-07T07:08:06;30.70;;;11.20;;
41927;SDS011;27616;51.420;6.788;2023-12-07T07:10:33;28.00;;;11.43;;
41927;SDS011;27616;51.420;6.788;2023-12-07T07:13:02;33.60;;;11.97;;
41927;SDS011;27616;51.420;6.788;2023-12-07T07:15:31;29.47;;;12.07;;
41927;SDS011;27616;51.420;6.788;2023-12-07T07:17:57;34.13;;;12.37;;
41927;SDS011;27616;51.420;6.788;2023-12-07T07:20:23;25.63;;;10.83;;
41927;SDS011;27616;51.420;6.788;2023-12-07T07:22:48;26.47;;;11.60;;
41927;SDS011;27616;51.420;6.788;2023-12-07T07:25:14;30.40;;;11.20;;
41927;SDS011;27616;51.420;6.788;2023-12-07T07:27:41;28.20;;;12.00;;
41927;SDS011;27616;51.420;6.788;2023-12-07T07:30:07;34.13;;;12.13;;
41927;SDS011;27616;51.420;6.788;2023-12-07T07:32:33;29.70;;;12.03;;
41927;SDS011;27616;51.420;6.788;2023-12-07T07:34:59;32.03;;;12.57;;
41927;SDS011;27616;51.420;6.788;2023-12-07T07:37:25;30.47;;;11.50;;
41927;SDS011;27616;51.420;6.788;2023-12-07T07:39:50;32.33;;;12.13;;
41927;SDS011;27616;51.420;6.788;2023-12-07T07:42:16;30.43;;;12.60;;
41927;SDS011;27616;51.420;6.788;2023-12-07T07:44:42;32.80;;;13.60;;
41927;SDS011;27616;51.420;6.788;2023-12-07T07:47:07;30.13;;;11.73;;
41927;SDS011;27616;51.420;6.788;2023-12-07T07:49:33;31.30;;;12.27;;
41927;SDS011;27616;51.420;6.788;2023-12-07T07:51:59;35.77;;;12.00;;
41927;SDS011;27616;51.420;6.788;2023-12-07T07:54:24;32.07;;;13.00;;
41927;SDS011;27616;51.420;6.788;2023-12-07T07:56:50;29.70;;;12.17;;
41927;SDS011;27616;51.420;6.788;2023-12-07T07:59:16;40.77;;;14.30;;
41927;SDS011;27616;51.420;6.788;2023-12-07T08:01:41;29.20;;;11.57;;
41927;SDS011;27616;51.420;6.788;2023-12-07T08:04:07;33.13;;;11.03;;
41927;SDS011;27616;51.420;6.788;2023-12-07T08:06:35;33.33;;;12.57;;
41927;SDS011;27616;51.420;6.788;2023-12-07T08:09:00;32.40;;;12.47;;
41927;SDS011;27616;51.420;6.788;2023-12-07T08:11:26;34.70;;;12.67;;
41927;SDS011;27616;51.420;6.788;2023-12-07T08:13:52;37.43;;;13.60;;
41927;SDS011;27616;51.420;6.788;2023-12-07T08:16:17;33.03;;;13.03;;
41927;SDS011;27616;51.420;6.788;2023-12-07T08:18:44;29.60;;;10.53;;
41927;SDS011;27616;51.420;6.788;2023-12-07T08:21:17;29.10;;;11.97;;
41927;SDS011;27616;51.420;6.788;2023-12-07T08:23:47;30.30;;;11.77;;
41927;SDS011;27616;51.420;6.788;2023-12-07T08:26:12;32.13;;;11.43;;
41927;SDS011;27616;51.420;6.788;2023-12-07T08:28:39;35.27;;;11.77;;
41927;SDS011;27616;51.420;6.788;2023-12-07T08:31:05;32.07;;;11.03;;
41927;SDS011;27616;51.420;6.788;2023-12-07T08:33:31;30.67;;;12.30;;
41927;SDS011;27616;51.420;6.788;2023-12-07T08:35:59;28.20;;;11.40;;
41927;SDS011;27616;51.420;6.788;2023-12-07T08:38:25;31.63;;;12.47;;
41927;SDS011;27616;51.420;6.788;2023-12-07T08:40:50;31.13;;;11.90;;
41927;SDS011;27616;51.420;6.788;2023-12-07T08:43:20;21.17;;;10.57;;
41927;SDS011;27616;51.420;6.788;2023-12-07T08:45:47;27.77;;;11.80;;
41927;SDS011;27616;51.420;6.788;2023-12-07T08:48:13;31.50;;;11.23;;
41927;SDS011;27616;51.420;6.788;2023-12-07T08:50:39;27.03;;;10.73;;
41927;SDS011;27616;51.420;6.788;2023-12-07T08:53:06;23.07;;;10.23;;
41927;SDS011;27616;51.420;6.788;2023-12-07T08:55:31;27.93;;;10.10;;
41927;SDS011;27616;51.420;6.788;2023-12-07T08:57:57;22.10;;;9.53;;
41927;SDS011;27616;51.420;6.788;2023-12-07T09:00:24;26.13;;;9.90;;
41927;SDS011;27616;51.420;6.788;2023-12-07T09:02:50;23.30;;;10.03;;
41927;SDS011;27616;51.420;6.788;2023-12-07T09:05:17;25.60;;;9.67;;
41927;SDS011;27616;51.420;6.788;2023-12-07T09:07:43;21.70;;;9.60;;
41927;SDS011;27616;51.420;6.788;2023-12-07T09:10:09;25.33;;;8.97;;
41927;SDS011;27616;51.420;6.788;2023-12-07T09:12:35;23.10;;;8.97;;
41927;SDS011;27616;51.420;6.788;2023-12-07T09:15:02;22.57;;;8.93;;
41927;SDS011;27616;51.420;6.788;2023-12-07T09:17:28;18.10;;;8.00;;
41927;SDS011;27616;51.420;6.788;2023-12-07T09:19:54;23.83;;;10.00;;
41927;SDS011;27616;51.420;6.788;2023-12-07T09:22:20;20.13;;;8.57;;
41927;SDS011;27616;51.420;6.788;2023-12-07T09:24:46;17.57;;;8.00;;
41927;SDS011;27616;51.420;6.788;2023-12-07T09:27:13;18.93;;;7.47;;
41927;SDS011;27616;51.420;6.788;2023-12-07T09:29:38;17.47;;;7.90;;
41927;SDS011;27616;51.420;6.788;2023-12-07T09:32:05;17.70;;;7.30;;
41927;SDS011;27616;51.420;6.788;2023-12-07T09:34:32;16.00;;;7.90;;
41927;SDS011;27616;51.420;6.788;2023-12-07T09:37:07;18.03;;;7.83;;
41927;SDS011;27616;51.420;6.788;2023-12-07T09:39:33;13.27;;;5.67;;
41927;SDS011;27616;51.420;6.788;2023-12-07T09:41:59;21.00;;;7.53;;
41927;SDS011;27616;51.420;6.788;2023-12-07T09:44:26;16.43;;;7.67;;
41927;SDS011;27616;51.420;6.788;2023-12-07T09:46:52;17.43;;;7.77;;
41927;SDS011;27616;51.420;6.788;2023-12-07T09:49:17;14.33;;;7.37;;
41927;SDS011;27616;51.420;6.788;2023-12-07T09:51:44;14.37;;;6.57;;
41927;SDS011;27616;51.420;6.788;2023-12-07T09:54:11;16.57;;;7.23;;
41927;SDS011;27616;51.420;6.788;2023-12-07T09:56:37;15.23;;;6.23;;
41927;SDS011;27616;51.420;6.788;2023-12-07T09:59:03;13.37;;;6.10;;
41927;SDS011;27616;51.420;6.788;2023-12-07T10:01:29;11.37;;;6.10;;
41927;SDS011;27616;51.420;6.788;2023-12-07T10:06:43;12.03;;;5.83;;
41927;SDS011;27616;51.420;6.788;2023-12-07T10:09:10;11.00;;;5.05;;
41927;SDS011;27616;51.420;6.788;2023-12-07T10:11:36;9.07;;;5.03;;
41927;SDS011;27616;51.420;6.788;2023-12-07T10:14:02;9.20;;;4.88;;
41927;SDS011;27616;51.420;6.788;2023-12-07T10:16:28;8.18;;;4.82;;
41927;SDS011;27616;51.420;6.788;2023-12-07T10:18:53;10.48;;;4.78;;
41927;SDS011;27616;51.420;6.788;2023-12-07T10:21:30;10.45;;;5.13;;
41927;SDS011;27616;51.420;6.788;2023-12-07T10:23:57;8.02;;;4.97;;
41927;SDS011;27616;51.420;6.788;2023-12-07T10:26:23;9.13;;;4.95;;
41927;SDS011;27616;51.420;6.788;2023-12-07T10:28:49;10.75;;;5.15;;
41927;SDS011;27616;51.420;6.788;2023-12-07T10:31:18;7.97;;;4.07;;
41927;SDS011;27616;51.420;6.788;2023-12-07T10:33:47;7.47;;;4.22;;
41927;SDS011;27616;51.420;6.788;2023-12-07T10:36:15;8.52;;;3.65;;
41927;SDS011;27616;51.420;6.788;2023-12-07T10:38:41;8.10;;;4.75;;
41927;SDS011;27616;51.420;6.788;2023-12-07T10:41:07;10.30;;;5.03;;
41927;SDS011;27616;51.420;6.788;2023-12-07T10:43:36;9.48;;;4.70;;
41927;SDS011;27616;51.420;6.788;2023-12-07T10:46:03;10.25;;;4.15;;
41927;SDS011;27616;51.420;6.788;2023-12-07T10:48:30;9.18;;;4.15;;
41927;SDS011;27616;51.420;6.788;2023-12-07T10:50:57;9.70;;;4.70;;
41927;SDS011;27616;51.420;6.788;2023-12-07T10:53:27;11.73;;;5.05;;
41927;SDS011;27616;51.420;6.788;2023-12-07T10:55:55;8.03;;;4.40;;
41927;SDS011;27616;51.420;6.788;2023-12-07T10:58:24;10.65;;;4.38;;
41927;SDS011;27616;51.420;6.788;2023-12-07T11:00:53;7.80;;;4.35;;
41927;SDS011;27616;51.420;6.788;2023-12-07T11:03:19;10.53;;;4.93;;
41927;SDS011;27616;51.420;6.788;2023-12-07T11:05:48;10.85;;;4.70;;
41927;SDS011;27616;51.420;6.788;2023-12-07T11:09:00;12.37;;;5.30;;
41927;SDS011;27616;51.420;6.788;2023-12-07T11:14:09;8.30;;;4.85;;
41927;SDS011;27616;51.420;6.788;2023-12-07T11:16:42;8.93;;;4.63;;
41927;SDS011;27616;51.420;6.788;2023-12-07T11:22:10;10.98;;;5.22;;
41927;SDS011;27616;51.420;6.788;2023-12-07T11:24:37;11.35;;;4.95;;
41927;SDS011;27616;51.420;6.788;2023-12-07T11:27:03;10.47;;;5.27;;
41927;SDS011;27616;51.420;6.788;2023-12-07T11:29:29;10.30;;;5.73;;
41927;SDS011;27616;51.420;6.788;2023-12-07T11:31:56;10.87;;;5.33;;
41927;SDS011;27616;51.420;6.788;2023-12-07T11:34:41;11.10;;;5.50;;
41927;SDS011;27616;51.420;6.788;2023-12-07T11:37:08;8.90;;;4.13;;
41927;SDS011;27616;51.420;6.788;2023-12-07T11:39:39;10.73;;;5.60;;
41927;SDS011;27616;51.420;6.788;2023-12-07T11:42:12;9.30;;;4.77;;
41927;SDS011;27616;51.420;6.788;2023-12-07T11:44:42;12.33;;;5.10;;
41927;SDS011;27616;51.420;6.788;2023-12-07T11:47:15;10.13;;;5.17;;
41927;SDS011;27616;51.420;6.788;2023-12-07T11:49:42;11.67;;;5.93;;
41927;SDS011;27616;51.420;6.788;2023-12-07T11:52:15;12.10;;;4.97;;
41927;SDS011;27616;51.420;6.788;2023-12-07T11:54:43;10.30;;;4.90;;
41927;SDS011;27616;51.420;6.788;2023-12-07T11:57:10;13.03;;;5.63;;
41927;SDS011;27616;51.420;6.788;2023-12-07T11:59:35;8.50;;;4.80;;
41927;SDS011;27616;51.420;6.788;2023-12-07T12:02:01;10.37;;;5.20;;
41927;SDS011;27616;51.420;6.788;2023-12-07T12:04:30;12.43;;;5.43;;
41927;SDS011;27616;51.420;6.788;2023-12-07T12:06:55;11.00;;;5.20;;
41927;SDS011;27616;51.420;6.788;2023-12-07T12:09:23;13.63;;;5.87;;
41927;SDS011;27616;51.420;6.788;2023-12-07T12:11:49;12.03;;;5.67;;
41927;SDS011;27616;51.420;6.788;2023-12-07T12:14:15;13.23;;;6.10;;
41927;SDS011;27616;51.420;6.788;2023-12-07T12:16:47;12.10;;;5.33;;
41927;SDS011;27616;51.420;6.788;2023-12-07T12:19:13;10.77;;;4.40;;
41927;SDS011;27616;51.420;6.788;2023-12-07T12:21:42;10.07;;;4.80;;
41927;SDS011;27616;51.420;6.788;2023-12-07T12:24:11;8.13;;;4.27;;
41927;SDS011;27616;51.420;6.788;2023-12-07T12:26:38;9.43;;;5.00;;
41927;SDS011;27616;51.420;6.788;2023-12-07T12:29:05;10.90;;;5.07;;
41927;SDS011;27616;51.420;6.788;2023-12-07T12:31:33;7.97;;;4.03;;
41927;SDS011;27616;51.420;6.788;2023-12-07T12:34:02;12.37;;;5.50;;
41927;SDS011;27616;51.420;6.788;2023-12-07T12:36:30;10.60;;;4.50;;
41927;SDS011;27616;51.420;6.788;2023-12-07T12:38:56;11.93;;;5.50;;
41927;SDS011;27616;51.420;6.788;2023-12-07T12:41:22;10.37;;;5.03;;
41927;SDS011;27616;51.420;6.788;2023-12-07T12:43:48;8.67;;;4.57;;
41927;SDS011;27616;51.420;6.788;2023-12-07T12:46:15;9.00;;;4.20;;
41927;SDS011;27616;51.420;6.788;2023-12-07T12:48:53;10.97;;;5.00;;
41927;SDS011;27616;51.420;6.788;2023-12-07T12:53:48;8.77;;;3.93;;
41927;SDS011;27616;51.420;6.788;2023-12-07T12:56:14;8.37;;;3.77;;
41927;SDS011;27616;51.420;6.788;2023-12-07T12:58:39;9.17;;;4.43;;
41927;SDS011;27616;51.420;6.788;2023-12-07T13:01:05;9.60;;;4.63;;
41927;SDS011;27616;51.420;6.788;2023-12-07T13:03:32;10.30;;;4.93;;
41927;SDS011;27616;51.420;6.788;2023-12-07T13:05:58;9.23;;;4.57;;
41927;SDS011;27616;51.420;6.788;2023-12-07T13:08:23;8.87;;;4.90;;
41927;SDS011;27616;51.420;6.788;2023-12-07T13:10:49;9.00;;;4.70;;
41927;SDS011;27616;51.420;6.788;2023-12-07T13:13:15;8.23;;;4.17;;
41927;SDS011;27616;51.420;6.788;2023-12-07T13:15:41;10.23;;;4.83;;
41927;SDS011;27616;51.420;6.788;2023-12-07T13:18:07;9.45;;;4.85;;
41927;SDS011;27616;51.420;6.788;2023-12-07T13:20:33;7.55;;;4.63;;
41927;SDS011;27616;51.420;6.788;2023-12-07T13:23:00;10.23;;;4.80;;
41927;SDS011;27616;51.420;6.788;2023-12-07T13:25:26;9.32;;;4.70;;
41927;SDS011;27616;51.420;6.788;2023-12-07T13:27:51;8.55;;;4.40;;
41927;SDS011;27616;51.420;6.788;2023-12-07T13:30:17;7.38;;;4.30;;
41927;SDS011;27616;51.420;6.788;2023-12-07T13:32:43;10.98;;;5.00;;
41927;SDS011;27616;51.420;6.788;2023-12-07T13:35:09;8.23;;;4.30;;
41927;SDS011;27616;51.420;6.788;2023-12-07T13:37:35;9.88;;;4.22;;
41927;SDS011;27616;51.420;6.788;2023-12-07T13:40:01;9.15;;;4.47;;
41927;SDS011;27616;51.420;6.788;2023-12-07T13:42:29;10.00;;;4.43;;
41927;SDS011;27616;51.420;6.788;2023-12-07T13:44:55;10.90;;;4.70;;
41927;SDS011;27616;51.420;6.788;2023-12-07T13:47:22;9.23;;;4.63;;
41927;SDS011;27616;51.420;6.788;2023-12-07T13:49:53;7.80;;;4.67;;
41927;SDS011;27616;51.420;6.788;2023-12-07T13:52:22;7.80;;;4.00;;
41927;SDS011;27616;51.420;6.788;2023-12-07T13:54:48;9.13;;;4.00;;
41927;SDS011;27616;51.420;6.788;2023-12-07T13:57:14;8.43;;;4.40;;
41927;SDS011;27616;51.420;6.788;2023-12-07T13:59:39;7.07;;;4.03;;
41927;SDS011;27616;51.420;6.788;2023-12-07T14:02:06;10.03;;;4.60;;
41927;SDS011;27616;51.420;6.788;2023-12-07T14:04:31;8.40;;;4.03;;
41927;SDS011;27616;51.420;6.788;2023-12-07T14:07:14;9.10;;;3.97;;
41927;SDS011;27616;51.420;6.788;2023-12-07T14:09:40;8.13;;;4.30;;
41927;SDS011;27616;51.420;6.788;2023-12-07T14:12:08;8.97;;;4.10;;
41927;SDS011;27616;51.420;6.788;2023-12-07T14:14:36;9.87;;;4.03;;
41927;SDS011;27616;51.420;6.788;2023-12-07T14:17:01;9.53;;;4.40;;
41927;SDS011;27616;51.420;6.788;2023-12-07T14:19:28;11.73;;;4.60;;
41927;SDS011;27616;51.420;6.788;2023-12-07T14:21:54;11.90;;;4.37;;
41927;SDS011;27616;51.420;6.788;2023-12-07T14:24:21;11.60;;;4.13;;
41927;SDS011;27616;51.420;6.788;2023-12-07T14:26:47;10.10;;;4.10;;
41927;SDS011;27616;51.420;6.788;2023-12-07T14:29:13;8.80;;;3.40;;
41927;SDS011;27616;51.420;6.788;2023-12-07T14:31:41;9.80;;;4.17;;
41927;SDS011;27616;51.420;6.788;2023-12-07T14:34:06;12.10;;;3.60;;
41927;SDS011;27616;51.420;6.788;2023-12-07T14:36:32;9.80;;;4.43;;
41927;SDS011;27616;51.420;6.788;2023-12-07T14:38:58;8.77;;;3.63;;
41927;SDS011;27616;51.420;6.788;2023-12-07T14:41:23;8.77;;;4.17;;